Time;durP1;ratioP1;P1;durP2;ratioP2;P2;SDS_P1;SDS_P2;PMS_P1;PMS_P2;Temp;Humidity;BMP_temperature;BMP_pressure;BME280_temperature;BME280_humidity;BME280_pressure;Samples;Min_cycle;Max_cycle;Signal;HPM_P1;HPM_P2
2023/05/14 00:02:23;;;;;;;;;;;;;;;22.35;44.50;101602.44;5007242;28;4191;-71
2023/05/14 00:04:50;;;;;;;;;;;;;;;22.34;44.25;101598.06;5007862;28;4197;-70
2023/05/14 00:07:16;;;;;;;;;;;;;;;22.33;44.43;101605.22;5004921;28;4246;-71
2023/05/14 00:09:42;;;;;;;;;;;;;;;22.34;44.41;101595.19;5003610;28;4218;-71
2023/05/14 00:12:09;;;;;;;;;;;;;;;22.32;44.51;101590.06;5007408;28;4163;-71
2023/05/14 00:14:35;;;;;;;;;;;;;;;22.32;44.49;101595.09;5011802;28;4953;-71
2023/05/14 00:17:01;;;;;;;;;;;;;;;22.32;44.57;101583.53;5006985;28;4198;-71
2023/05/14 00:19:28;;;;;;;;;;;;;;;22.31;44.30;101587.81;5007053;28;4413;-71
2023/05/14 00:21:54;;;;;;;;;;;;;;;22.31;44.25;101584.91;5008195;28;3997;-72
2023/05/14 00:24:20;;;;;;;;;;;;;;;22.26;44.62;101575.31;5006169;28;4216;-72
2023/05/14 00:26:47;;;;;;;;;;;;;;;22.30;44.32;101578.41;5006357;28;4035;-71
2023/05/14 00:29:13;;;;;;;;;;;;;;;22.31;44.56;101582.81;5007855;28;4326;-72
2023/05/14 00:31:40;;;;;;;;;;;;;;;22.33;44.66;101573.47;5008143;28;4247;-70
2023/05/14 00:34:06;;;;;;;;;;;;;;;22.31;44.54;101574.16;5008358;28;4051;-72
2023/05/14 00:36:32;;;;;;;;;;;;;;;22.32;44.99;101572.00;5015074;28;4080;-72
2023/05/14 00:38:59;;;;;;;;;;;;;;;22.30;45.06;101575.53;5007427;28;4343;-72
2023/05/14 00:41:25;;;;;;;;;;;;;;;22.31;44.86;101573.38;5004487;28;4157;-72
2023/05/14 00:43:51;;;;;;;;;;;;;;;22.31;44.70;101570.50;5003006;28;4189;-71
2023/05/14 00:46:18;;;;;;;;;;;;;;;22.30;44.84;101569.75;5010084;28;4072;-71
2023/05/14 00:48:44;;;;;;;;;;;;;;;22.29;45.05;101562.50;5007377;28;4482;-71
2023/05/14 00:51:11;;;;;;;;;;;;;;;22.29;44.76;101570.41;5006503;28;4897;-71
2023/05/14 00:53:37;;;;;;;;;;;;;;;22.29;44.85;101570.41;5008394;28;4188;-71
2023/05/14 00:56:04;;;;;;;;;;;;;;;22.28;45.00;101568.91;4996507;28;4252;-71
2023/05/14 00:58:30;;;;;;;;;;;;;;;22.28;44.90;101568.91;5008094;28;4171;-71
2023/05/14 01:00:56;;;;;;;;;;;;;;;22.27;45.00;101573.19;5013420;28;4605;-72
2023/05/14 01:03:23;;;;;;;;;;;;;;;22.27;45.09;101568.16;5003596;28;4180;-72
2023/05/14 01:06:08;;;;;;;;;;;;;;;22.27;44.94;101567.44;5006281;28;4197;-72
2023/05/14 01:08:53;;;;;;;;;;;;;;;22.25;45.07;101559.41;5010820;28;4283;-71
2023/05/14 01:11:30;;;;;;;;;;;;;;;22.26;45.02;101560.16;5009932;28;4186;-71
2023/05/14 01:14:10;;;;;;;;;;;;;;;22.24;44.97;101560.03;5003728;28;4655;-71
2023/05/14 01:16:37;;;;;;;;;;;;;;;22.24;45.07;101562.94;5010043;28;4138;-71
2023/05/14 01:19:04;;;;;;;;;;;;;;;22.25;45.08;101561.56;4992208;28;4263;-71
2023/05/14 01:21:39;;;;;;;;;;;;;;;22.24;45.02;101562.94;5010072;28;4049;-69
2023/05/14 01:24:06;;;;;;;;;;;;;;;22.23;45.07;101562.19;5009825;28;6165;-71
2023/05/14 01:26:32;;;;;;;;;;;;;;;22.23;45.00;101558.56;5015436;28;4123;-71
2023/05/14 01:29:04;;;;;;;;;;;;;;;22.23;45.07;101567.22;5010591;28;4097;-71
2023/05/14 01:31:31;;;;;;;;;;;;;;;22.23;44.94;101561.44;5014982;28;4090;-71
2023/05/14 01:33:57;;;;;;;;;;;;;;;22.22;45.07;101560.72;5009360;28;4242;-70
2023/05/14 01:36:23;;;;;;;;;;;;;;;22.22;45.09;101557.81;5011015;28;4017;-71
2023/05/14 01:38:50;;;;;;;;;;;;;;;22.21;45.16;101558.44;4997010;28;4523;-71
2023/05/14 01:41:17;;;;;;;;;;;;;;;22.22;45.06;101559.94;4999151;28;4183;-71
2023/05/14 01:43:44;;;;;;;;;;;;;;;22.21;45.03;101552.66;5012152;28;4226;-71
2023/05/14 01:46:10;;;;;;;;;;;;;;;22.21;45.13;101546.91;5012960;28;4214;-71
2023/05/14 01:48:37;;;;;;;;;;;;;;;22.20;44.86;101539.66;5011422;28;4046;-71
2023/05/14 01:51:03;;;;;;;;;;;;;;;22.20;45.07;101539.66;5013898;28;4164;-71
2023/05/14 01:53:29;;;;;;;;;;;;;;;22.18;45.04;101535.25;5020066;28;4198;-71
2023/05/14 01:55:56;;;;;;;;;;;;;;;22.18;45.10;101543.16;5010937;28;4059;-71
2023/05/14 01:58:22;;;;;;;;;;;;;;;22.20;44.93;101539.66;5007353;28;4134;-71
2023/05/14 02:00:48;;;;;;;;;;;;;;;22.18;45.02;101543.91;5029454;28;4175;-71
2023/05/14 02:03:15;;;;;;;;;;;;;;;22.18;45.02;101549.66;5008052;28;3989;-71
2023/05/14 02:05:41;;;;;;;;;;;;;;;22.17;45.06;101542.44;5010307;28;4045;-70
2023/05/14 02:08:08;;;;;;;;;;;;;;;22.17;45.00;101538.78;5010361;28;4394;-73
2023/05/14 02:10:34;;;;;;;;;;;;;;;22.17;45.09;101545.31;4995320;28;3984;-73
2023/05/14 02:13:02;;;;;;;;;;;;;;;22.17;45.03;101536.66;5013145;28;3993;-74
2023/05/14 02:15:28;;;;;;;;;;;;;;;22.16;45.00;101535.16;5011858;28;4134;-74
2023/05/14 02:17:55;;;;;;;;;;;;;;;22.16;45.04;101535.16;5018012;28;4115;-74
2023/05/14 02:20:21;;;;;;;;;;;;;;;22.16;45.13;101534.41;5000330;28;4147;-74
2023/05/14 02:22:48;;;;;;;;;;;;;;;22.15;44.78;101538.66;5013178;28;4045;-74
2023/05/14 02:25:14;;;;;;;;;;;;;;;22.15;44.83;101527.13;5002034;28;4584;-74
2023/05/14 02:27:42;;;;;;;;;;;;;;;22.13;44.89;101533.56;4996396;28;4464;-74
2023/05/14 02:30:09;;;;;;;;;;;;;;;22.15;44.94;101538.66;5011366;28;4699;-74
2023/05/14 02:32:37;;;;;;;;;;;;;;;22.15;44.99;101538.66;5012872;28;4303;-74
2023/05/14 02:35:04;;;;;;;;;;;;;;;22.13;44.65;101536.44;5011751;28;5007;-74
2023/05/14 02:37:30;;;;;;;;;;;;;;;22.13;45.02;101533.56;5010243;28;4310;-74
2023/05/14 02:39:56;;;;;;;;;;;;;;;22.13;44.88;101530.69;5000912;28;4167;-74
2023/05/14 02:42:23;;;;;;;;;;;;;;;22.13;45.09;101530.69;4996951;28;4098;-74
2023/05/14 02:44:51;;;;;;;;;;;;;;;22.12;44.81;101534.94;5014510;28;4254;-74
2023/05/14 02:47:17;;;;;;;;;;;;;;;22.12;44.82;101532.06;5009588;28;4167;-74
2023/05/14 02:49:43;;;;;;;;;;;;;;;22.11;45.08;101521.91;5010787;28;4586;-74
2023/05/14 02:52:10;;;;;;;;;;;;;;;22.11;44.78;101521.91;5012921;28;4149;-74
2023/05/14 02:54:36;;;;;;;;;;;;;;;22.12;44.98;101526.28;5013330;28;4046;-74
2023/05/14 02:57:03;;;;;;;;;;;;;;;22.11;45.18;101524.81;5010458;28;4003;-74
2023/05/14 02:59:30;;;;;;;;;;;;;;;22.11;44.85;101524.06;5014867;28;4505;-74
2023/05/14 03:01:57;;;;;;;;;;;;;;;22.10;44.97;101531.22;4993531;28;5350;-74
2023/05/14 03:04:24;;;;;;;;;;;;;;;22.10;44.97;101531.94;4984797;28;5194;-74
2023/05/14 03:06:50;;;;;;;;;;;;;;;22.10;45.06;101537.72;5009673;28;4522;-74
2023/05/14 03:09:16;;;;;;;;;;;;;;;22.10;44.99;101531.22;4999518;28;4698;-73
2023/05/14 03:11:43;;;;;;;;;;;;;;;22.09;44.89;101530.47;5014489;28;4252;-74
2023/05/14 03:14:09;;;;;;;;;;;;;;;22.08;44.75;101526.09;5011020;28;4382;-73
2023/05/14 03:16:36;;;;;;;;;;;;;;;22.07;44.91;101533.25;5008519;28;4427;-74
2023/05/14 03:19:02;;;;;;;;;;;;;;;22.07;44.85;101527.47;5013749;28;4185;-74
2023/05/14 03:21:30;;;;;;;;;;;;;;;22.06;45.18;101528.88;5014028;28;4140;-74
2023/05/14 03:23:56;;;;;;;;;;;;;;;22.06;45.02;101523.13;5002256;28;5328;-74
2023/05/14 03:26:22;;;;;;;;;;;;;;;22.06;44.92;101526.00;5014436;28;4368;-74
2023/05/14 03:28:51;;;;;;;;;;;;;;;22.06;45.14;101519.47;5012463;28;4396;-74
2023/05/14 03:31:17;;;;;;;;;;;;;;;22.05;45.16;101524.50;5012333;28;3882;-74
2023/05/14 03:33:44;;;;;;;;;;;;;;;22.05;45.20;101512.22;5015144;28;4546;-74
2023/05/14 03:36:10;;;;;;;;;;;;;;;22.05;45.18;101512.97;5012673;28;4694;-73
2023/05/14 03:38:37;;;;;;;;;;;;;;;22.05;45.08;101512.97;5016512;28;4583;-73
2023/05/14 03:41:03;;;;;;;;;;;;;;;22.05;45.25;101512.97;5018573;28;4001;-74
2023/05/14 03:43:29;;;;;;;;;;;;;;;22.03;45.24;101515.75;5015900;28;5149;-73
2023/05/14 03:45:56;;;;;;;;;;;;;;;22.03;45.28;101507.09;4996322;28;5270;-73
2023/05/14 03:48:22;;;;;;;;;;;;;;;22.04;44.83;101516.50;4995655;28;3958;-74
2023/05/14 03:50:50;;;;;;;;;;;;;;;22.03;45.19;101515.00;5005090;28;4052;-73
2023/05/14 03:53:16;;;;;;;;;;;;;;;22.03;45.27;101509.97;5008017;28;4129;-74
2023/05/14 03:55:44;;;;;;;;;;;;;;;22.02;44.99;101514.25;5006951;28;5036;-73
2023/05/14 03:58:13;;;;;;;;;;;;;;;22.01;45.18;101509.88;5013104;28;4526;-74
2023/05/14 04:00:42;;;;;;;;;;;;;;;22.01;45.14;101509.88;5013505;28;4102;-73
2023/05/14 04:03:09;;;;;;;;;;;;;;;22.00;45.23;101505.50;5011240;28;5064;-73
2023/05/14 04:05:36;;;;;;;;;;;;;;;22.01;45.10;101512.75;5008456;28;4580;-72
2023/05/14 04:08:02;;;;;;;;;;;;;;;22.00;45.10;101504.75;4997682;28;4161;-73
2023/05/14 04:10:29;;;;;;;;;;;;;;;21.99;45.11;101504.03;5010823;28;4138;-73
2023/05/14 04:12:57;;;;;;;;;;;;;;;21.99;45.18;101503.25;5023596;28;4929;-73
2023/05/14 04:15:29;;;;;;;;;;;;;;;21.98;45.13;101502.50;5016997;28;4415;-73
2023/05/14 04:17:56;;;;;;;;;;;;;;;21.98;45.14;101502.50;5012551;28;4357;-72
2023/05/14 04:20:22;;;;;;;;;;;;;;;21.98;45.08;101496.75;4997953;28;3928;-73
2023/05/14 04:22:49;;;;;;;;;;;;;;;21.97;45.34;101501.03;5010088;28;4508;-72
2023/05/14 04:25:17;;;;;;;;;;;;;;;21.97;45.18;101501.03;5009762;28;3876;-73
2023/05/14 04:27:43;;;;;;;;;;;;;;;21.97;45.37;101503.91;5003341;28;4279;-73
2023/05/14 04:30:10;;;;;;;;;;;;;;;21.95;45.15;101493.03;5008871;28;4370;-73
2023/05/14 04:32:36;;;;;;;;;;;;;;;21.89;45.44;101495.59;4999595;28;4232;-73
2023/05/14 04:35:03;;;;;;;;;;;;;;;21.89;45.15;101494.84;5000529;28;4110;-73
2023/05/14 04:37:30;;;;;;;;;;;;;;;21.93;45.08;101495.06;4984538;28;4102;-73
2023/05/14 04:39:56;;;;;;;;;;;;;;;21.93;45.31;101492.16;5006808;28;4045;-73
2023/05/14 04:42:23;;;;;;;;;;;;;;;21.94;45.10;101496.53;5010099;28;4376;-73
2023/05/14 04:44:50;;;;;;;;;;;;;;;21.94;44.92;101494.41;5010468;28;4189;-73
2023/05/14 04:47:16;;;;;;;;;;;;;;;21.94;45.09;101494.41;5007641;28;4378;-73
2023/05/14 04:49:43;;;;;;;;;;;;;;;21.94;45.23;101496.53;5016968;28;4663;-73
2023/05/14 04:52:09;;;;;;;;;;;;;;;21.94;45.16;101490.78;5011774;28;5341;-73
2023/05/14 04:54:35;;;;;;;;;;;;;;;21.93;45.44;101497.94;5010267;28;4020;-73
2023/05/14 04:57:02;;;;;;;;;;;;;;;21.93;45.43;101501.56;5004896;28;4374;-73
2023/05/14 04:59:29;;;;;;;;;;;;;;;21.93;45.38;101495.06;5013065;28;4220;-73
2023/05/14 05:01:55;;;;;;;;;;;;;;;21.93;45.46;101495.06;5011854;28;3997;-73
2023/05/14 05:04:22;;;;;;;;;;;;;;;21.93;45.17;101497.94;5008291;28;4120;-74
2023/05/14 05:06:49;;;;;;;;;;;;;;;21.92;45.27;101493.53;5001122;28;4428;-71
2023/05/14 05:09:18;;;;;;;;;;;;;;;21.92;45.45;101488.56;5006987;28;4740;-73
2023/05/14 05:11:45;;;;;;;;;;;;;;;21.92;45.36;101488.56;5009585;28;4465;-73
2023/05/14 05:14:11;;;;;;;;;;;;;;;21.92;45.26;101493.53;5005804;28;4370;-73
2023/05/14 05:16:38;;;;;;;;;;;;;;;21.92;45.32;101494.31;5004218;28;4206;-74
2023/05/14 05:19:04;;;;;;;;;;;;;;;21.92;45.32;101484.91;5000084;28;4042;-73
2023/05/14 05:21:30;;;;;;;;;;;;;;;21.92;45.46;101487.78;4997526;28;4434;-73
2023/05/14 05:23:57;;;;;;;;;;;;;;;21.92;45.52;101487.78;5004918;28;5444;-73
2023/05/14 05:26:25;;;;;;;;;;;;;;;21.92;45.34;101487.78;5009096;28;4022;-73
2023/05/14 05:28:51;;;;;;;;;;;;;;;21.92;45.55;101494.31;5003354;28;4195;-72
2023/05/14 05:31:18;;;;;;;;;;;;;;;21.91;45.62;101475.50;5004043;28;4095;-73
2023/05/14 05:33:45;;;;;;;;;;;;;;;21.92;45.34;101482.00;5006717;28;4468;-73
2023/05/14 05:36:11;;;;;;;;;;;;;;;21.92;45.63;101479.13;5011696;28;4287;-73
2023/05/14 05:38:38;;;;;;;;;;;;;;;21.92;45.40;101476.25;5002183;28;4315;-73
2023/05/14 05:41:04;;;;;;;;;;;;;;;21.91;45.53;101487.03;5018189;28;4011;-73
2023/05/14 05:43:32;;;;;;;;;;;;;;;21.91;45.42;101480.53;5004127;28;4216;-73
2023/05/14 05:45:59;;;;;;;;;;;;;;;21.92;45.71;101482.00;5014461;28;4127;-73
2023/05/14 05:48:25;;;;;;;;;;;;;;;21.91;45.33;101480.53;5000110;28;4550;-73
2023/05/14 05:50:52;;;;;;;;;;;;;;;21.93;45.68;101480.63;5002101;28;4857;-73
2023/05/14 05:53:18;;;;;;;;;;;;;;;21.91;45.76;101474.78;5003688;28;4449;-73
2023/05/14 05:55:44;;;;;;;;;;;;;;;21.91;45.79;101469.75;5002883;28;4502;-73
2023/05/14 05:58:13;;;;;;;;;;;;;;;21.91;45.56;101474.78;5006931;28;4839;-73
2023/05/14 06:00:40;;;;;;;;;;;;;;;21.91;45.70;101472.63;4997705;28;4522;-73
2023/05/14 06:03:06;;;;;;;;;;;;;;;21.91;45.65;101477.66;5005174;28;4379;-73
2023/05/14 06:05:32;;;;;;;;;;;;;;;21.90;45.51;101468.25;5010262;28;4220;-73
2023/05/14 06:07:59;;;;;;;;;;;;;;;21.90;45.67;101479.06;5007214;28;4215;-73
2023/05/14 06:10:25;;;;;;;;;;;;;;;21.92;45.48;101482.00;5007462;28;4083;-74
2023/05/14 06:12:51;;;;;;;;;;;;;;;21.90;45.70;101479.78;5003385;28;4155;-73
2023/05/14 06:15:18;;;;;;;;;;;;;;;21.91;45.49;101480.53;4998110;28;4155;-73
2023/05/14 06:17:44;;;;;;;;;;;;;;;21.91;45.50;101474.78;5007882;28;4191;-72
2023/05/14 06:20:11;;;;;;;;;;;;;;;21.90;45.50;101485.56;5009065;28;5086;-73
2023/05/14 06:22:37;;;;;;;;;;;;;;;21.90;45.79;101467.53;5008372;28;4135;-73
2023/05/14 06:25:04;;;;;;;;;;;;;;;21.91;45.71;101480.53;5010297;28;4536;-73
2023/05/14 06:27:30;;;;;;;;;;;;;;;21.91;45.51;101469.00;5006754;28;4289;-73
2023/05/14 06:29:57;;;;;;;;;;;;;;;21.90;45.79;101479.78;4994026;28;4063;-73
2023/05/14 06:32:23;;;;;;;;;;;;;;;21.90;45.78;101467.53;5023334;28;3932;-73
2023/05/14 06:34:49;;;;;;;;;;;;;;;21.90;45.66;101473.28;4990644;28;4069;-74
2023/05/14 06:37:16;;;;;;;;;;;;;;;21.90;45.59;101473.28;5002894;28;4462;-73
2023/05/14 06:39:48;;;;;;;;;;;;;;;21.90;45.75;101470.41;5000319;28;4241;-73
2023/05/14 06:42:15;;;;;;;;;;;;;;;21.89;45.79;101463.88;5041455;28;4060;-73
2023/05/14 06:44:42;;;;;;;;;;;;;;;21.89;45.51;101478.28;5002668;28;4103;-73
2023/05/14 06:47:08;;;;;;;;;;;;;;;21.88;45.72;101467.41;5009625;28;3935;-74
2023/05/14 06:49:34;;;;;;;;;;;;;;;21.81;45.77;101477.16;5012778;28;4191;-73
2023/05/14 06:52:01;;;;;;;;;;;;;;;21.80;45.74;101475.66;5007501;28;4349;-73
2023/05/14 06:54:27;;;;;;;;;;;;;;;21.79;45.86;101482.81;4991998;28;4390;-74
2023/05/14 06:56:54;;;;;;;;;;;;;;;21.79;45.95;101471.28;5003019;28;4120;-74
2023/05/14 06:59:20;;;;;;;;;;;;;;;21.80;45.95;101481.41;4996975;28;4585;-74
2023/05/14 07:01:47;;;;;;;;;;;;;;;21.79;45.74;101474.16;4998485;28;4453;-73
2023/05/14 07:04:13;;;;;;;;;;;;;;;21.80;46.08;101472.75;4985722;28;4411;-74
2023/05/14 07:06:39;;;;;;;;;;;;;;;21.79;46.05;101471.28;4993188;28;4346;-74
2023/05/14 07:09:06;;;;;;;;;;;;;;;21.79;45.88;101471.28;5006871;28;4070;-73
2023/05/14 07:11:32;;;;;;;;;;;;;;;21.79;46.04;101474.16;5011936;28;4242;-73
2023/05/14 07:13:59;;;;;;;;;;;;;;;21.78;45.64;101469.78;5004347;28;3974;-74
2023/05/14 07:16:25;;;;;;;;;;;;;;;21.79;45.09;101468.41;5001265;28;4585;-74
2023/05/14 07:18:51;;;;;;;;;;;;;;;21.83;44.53;101474.34;5002380;28;4280;-74
2023/05/14 07:21:18;;;;;;;;;;;;;;;21.84;43.83;101461.44;5007506;28;4128;-73
2023/05/14 07:23:44;;;;;;;;;;;;;;;21.86;43.65;101461.53;5003938;28;4029;-74
2023/05/14 07:26:11;;;;;;;;;;;;;;;21.86;43.08;101467.31;5005451;28;4723;-74
2023/05/14 07:28:37;;;;;;;;;;;;;;;21.87;43.08;101460.88;5002830;28;4187;-73
2023/05/14 07:31:07;;;;;;;;;;;;;;;21.87;42.77;101460.16;5000829;28;4457;-74
2023/05/14 07:33:35;;;;;;;;;;;;;;;21.87;42.98;101457.25;5003646;28;4772;-71
2023/05/14 07:36:01;;;;;;;;;;;;;;;21.80;43.65;101453.31;4994306;28;4108;-69
2023/05/14 07:38:27;;;;;;;;;;;;;;;21.53;42.86;101448.38;5006492;28;4517;-73
2023/05/14 07:40:55;;;;;;;;;;;;;;;21.30;42.42;101450.09;5005292;28;4037;-72
2023/05/14 07:43:21;;;;;;;;;;;;;;;21.28;42.06;101444.22;4997744;28;4157;-68
2023/05/14 07:45:47;;;;;;;;;;;;;;;21.25;41.54;101448.38;5001676;28;4242;-67
2023/05/14 07:48:14;;;;;;;;;;;;;;;21.18;41.02;101442.94;4999875;28;4104;-67
2023/05/14 07:50:40;;;;;;;;;;;;;;;20.97;41.33;101441.13;5005289;28;4411;-67
2023/05/14 07:53:06;;;;;;;;;;;;;;;21.01;40.60;101441.34;5005708;28;5051;-73
2023/05/14 07:55:33;;;;;;;;;;;;;;;20.99;40.64;101438.38;5003055;28;4304;-74
2023/05/14 07:57:59;;;;;;;;;;;;;;;20.99;40.64;101432.59;5003918;28;4360;-72
2023/05/14 08:00:26;;;;;;;;;;;;;;;21.18;40.25;101437.19;4998704;28;4117;-70
2023/05/14 08:02:53;;;;;;;;;;;;;;;21.09;39.63;101436.00;4999417;28;4160;-70
2023/05/14 08:05:20;;;;;;;;;;;;;;;21.06;39.58;101443.06;5002569;28;4266;-70
2023/05/14 08:07:46;;;;;;;;;;;;;;;21.10;39.51;101438.25;5001684;28;4005;-70
2023/05/14 08:10:13;;;;;;;;;;;;;;;21.12;39.00;101434.75;5009913;28;4353;-70
2023/05/14 08:12:39;;;;;;;;;;;;;;;21.22;39.36;101435.25;5002369;28;4080;-68
2023/05/14 08:15:06;;;;;;;;;;;;;;;21.28;39.01;101426.94;5003289;28;4376;-67
2023/05/14 08:17:33;;;;;;;;;;;;;;;21.31;38.81;101427.78;5002168;28;4548;-68
2023/05/14 08:19:59;;;;;;;;;;;;;;;21.42;38.40;101435.59;5006222;28;5158;-67
2023/05/14 08:22:25;;;;;;;;;;;;;;;21.49;38.74;101428.00;5003196;28;4178;-73
2023/05/14 08:24:52;;;;;;;;;;;;;;;21.52;38.44;101410.16;5010590;28;4873;-68
2023/05/14 08:27:18;;;;;;;;;;;;;;;21.47;38.71;101422.13;5004085;28;3983;-68
2023/05/14 08:29:46;;;;;;;;;;;;;;;21.51;38.41;101422.34;5004260;28;4260;-70
2023/05/14 08:32:12;;;;;;;;;;;;;;;21.53;38.22;101413.78;4998299;28;4049;-71
2023/05/14 08:34:49;;;;;;;;;;;;;;;21.57;38.11;101414.00;5003955;28;4127;-70
2023/05/14 08:37:15;;;;;;;;;;;;;;;21.59;38.05;101399.69;5007228;28;3948;-70
2023/05/14 08:39:42;;;;;;;;;;;;;;;21.60;38.19;101398.31;5005884;28;4139;-70
2023/05/14 08:42:08;;;;;;;;;;;;;;;21.62;37.79;101397.66;5009028;28;5030;-69
2023/05/14 08:44:38;;;;;;;;;;;;;;;21.60;37.92;101395.44;5004145;28;4237;-70
2023/05/14 08:47:04;;;;;;;;;;;;;;;21.58;38.03;101395.34;5000695;28;3965;-71
2023/05/14 08:49:40;;;;;;;;;;;;;;;21.58;38.11;101388.78;5005773;28;4104;-71
2023/05/14 08:52:09;;;;;;;;;;;;;;;21.63;38.04;101397.00;5001847;28;4203;-72
2023/05/14 08:54:36;;;;;;;;;;;;;;;21.67;38.07;101394.34;5002462;28;4197;-71
2023/05/14 08:57:03;;;;;;;;;;;;;;;21.71;37.81;101388.00;5001344;28;5095;-71
2023/05/14 08:59:29;;;;;;;;;;;;;;;21.74;38.36;101390.38;5008530;28;4514;-71
2023/05/14 09:01:55;;;;;;;;;;;;;;;21.75;38.41;101388.22;5002012;28;4269;-71
2023/05/14 09:04:22;;;;;;;;;;;;;;;21.76;38.85;101375.28;5006079;28;3989;-71
2023/05/14 09:06:49;;;;;;;;;;;;;;;21.78;39.16;101378.28;5000081;28;4361;-71
2023/05/14 09:09:16;;;;;;;;;;;;;;;21.79;39.68;101370.38;5008962;28;4443;-71
2023/05/14 09:11:45;;;;;;;;;;;;;;;21.79;39.71;101376.16;5005036;28;4188;-71
2023/05/14 09:14:11;;;;;;;;;;;;;;;21.80;39.76;101372.59;5008603;28;4058;-70
2023/05/14 09:16:38;;;;;;;;;;;;;;;21.80;40.16;101366.09;5000469;28;3927;-72
2023/05/14 09:19:05;;;;;;;;;;;;;;;21.82;40.11;101377.72;5006752;28;4051;-71
2023/05/14 09:21:32;;;;;;;;;;;;;;;21.83;40.60;101364.78;5000739;28;4250;-68
2023/05/14 09:23:58;;;;;;;;;;;;;;;21.83;40.39;101364.78;5002173;28;4104;-71
2023/05/14 09:26:25;;;;;;;;;;;;;;;21.78;40.37;101354.47;5006075;28;4116;-71
2023/05/14 09:28:52;;;;;;;;;;;;;;;21.78;39.77;101363.84;5000328;28;4120;-71
2023/05/14 09:31:18;;;;;;;;;;;;;;;21.82;39.75;101351.78;4997383;28;4115;-71
2023/05/14 09:33:51;;;;;;;;;;;;;;;21.85;39.83;101350.47;5002664;28;3971;-71
2023/05/14 09:36:17;;;;;;;;;;;;;;;21.87;40.02;101353.47;4999944;28;4509;-71
2023/05/14 09:38:44;;;;;;;;;;;;;;;21.85;40.28;101345.47;5004063;28;4045;-73
2023/05/14 09:41:10;;;;;;;;;;;;;;;21.80;38.64;101337.28;5004482;28;4327;-71
2023/05/14 09:43:36;;;;;;;;;;;;;;;21.71;38.88;101336.88;5006771;28;4426;-69
2023/05/14 09:46:03;;;;;;;;;;;;;;;21.72;36.59;101338.38;5001792;28;3998;-70
2023/05/14 09:48:29;;;;;;;;;;;;;;;21.71;36.47;101331.09;4999678;28;4218;-70
2023/05/14 09:50:56;;;;;;;;;;;;;;;21.71;35.71;101325.34;4999350;28;4075;-71
2023/05/14 09:53:22;;;;;;;;;;;;;;;21.70;35.74;101329.63;5004029;28;4506;-70
2023/05/14 09:55:48;;;;;;;;;;;;;;;21.70;35.47;101318.09;5003962;28;4498;-70
2023/05/14 09:58:15;;;;;;;;;;;;;;;21.66;35.78;101312.13;5001883;28;4126;-70
2023/05/14 10:00:43;;;;;;;;;;;;;;;21.65;35.27;101313.53;4999689;28;4358;-70
2023/05/14 10:03:09;;;;;;;;;;;;;;;21.71;35.17;101298.66;5005373;28;4119;-70
2023/05/14 10:05:35;;;;;;;;;;;;;;;21.69;34.99;101301.44;5002531;28;4274;-71
2023/05/14 10:08:03;;;;;;;;;;;;;;;21.66;35.08;101294.84;5005304;28;4338;-72
2023/05/14 10:10:29;;;;;;;;;;;;;;;21.69;35.28;101292.78;4998753;28;4046;-71
2023/05/14 10:12:56;;;;;;;;;;;;;;;21.74;35.89;101289.47;5002069;28;4132;-71
2023/05/14 10:15:29;;;;;;;;;;;;;;;21.78;35.42;101293.94;5006935;28;4235;-71
2023/05/14 10:17:56;;;;;;;;;;;;;;;21.82;35.95;101288.38;5009464;28;4038;-71
2023/05/14 10:20:22;;;;;;;;;;;;;;;21.85;36.09;101275.53;5001126;28;4065;-71
2023/05/14 10:22:49;;;;;;;;;;;;;;;21.84;36.53;101274.06;5000764;28;4161;-71
2023/05/14 10:25:15;;;;;;;;;;;;;;;21.86;37.05;101279.91;5006803;28;5039;-71
2023/05/14 10:27:42;;;;;;;;;;;;;;;21.86;37.63;101272.00;5016953;28;4291;-71
2023/05/14 10:30:11;;;;;;;;;;;;;;;21.85;37.51;101278.41;5003440;28;4072;-71
2023/05/14 10:32:38;;;;;;;;;;;;;;;21.85;37.94;101275.53;5006332;28;4128;-71
2023/05/14 10:35:26;;;;;;;;;;;;;;;21.85;38.19;101269.75;5023306;28;4745;-71
2023/05/14 10:37:52;;;;;;;;;;;;;;;21.85;37.87;101269.75;5003736;28;4057;-71
2023/05/14 10:40:18;;;;;;;;;;;;;;;21.87;38.00;101267.72;5004676;28;4209;-71
2023/05/14 10:42:45;;;;;;;;;;;;;;;21.84;37.64;101265.41;4996705;28;4093;-69
2023/05/14 10:45:12;;;;;;;;;;;;;;;21.81;38.22;101264.56;5006943;28;3932;-75
2023/05/14 10:47:38;;;;;;;;;;;;;;;21.84;38.48;101263.25;4997183;28;4193;-78
2023/05/14 10:50:05;;;;;;;;;;;;;;;22.23;39.35;101267.94;4992473;28;4092;-71
2023/05/14 10:52:32;;;;;;;;;;;;;;;22.48;39.05;101264.00;5005450;28;4260;-71
2023/05/14 10:54:59;;;;;;;;;;;;;;;22.59;38.71;101263.03;4999893;28;3994;-72
2023/05/14 10:57:30;;;;;;;;;;;;;;;22.64;38.68;101269.00;5006999;28;4805;-72
2023/05/14 10:59:57;;;;;;;;;;;;;;;22.64;38.83;101258.19;5004579;28;4231;-71
2023/05/14 11:02:23;;;;;;;;;;;;;;;22.67;38.68;101262.66;5003605;28;4117;-73
2023/05/14 11:05:03;;;;;;;;;;;;;;;22.50;39.40;101266.25;5003050;28;4041;-73
2023/05/14 11:07:36;;;;;;;;;;;;;;;22.45;39.25;101253.00;5001233;28;4307;-72
2023/05/14 11:10:03;;;;;;;;;;;;;;;22.54;39.36;101261.38;5009730;28;3995;-73
2023/05/14 11:12:30;;;;;;;;;;;;;;;22.51;39.43;101259.06;5003504;28;4145;-74
2023/05/14 11:14:57;;;;;;;;;;;;;;;22.57;39.48;101248.53;5007518;28;5137;-75
2023/05/14 11:17:25;;;;;;;;;;;;;;;22.82;39.40;101249.56;5007304;28;4086;-74
2023/05/14 11:19:51;;;;;;;;;;;;;;;22.86;39.41;101243.97;5005607;28;4103;-75
2023/05/14 11:22:17;;;;;;;;;;;;;;;22.80;39.51;101241.56;5005344;28;3955;-73
2023/05/14 11:24:44;;;;;;;;;;;;;;;22.64;39.38;101245.91;5008808;28;4472;-73
2023/05/14 11:27:10;;;;;;;;;;;;;;;22.61;39.63;101241.44;5007977;28;4017;-73
2023/05/14 11:29:36;;;;;;;;;;;;;;;22.75;38.70;101239.16;5009167;28;4164;-77
2023/05/14 11:32:04;;;;;;;;;;;;;;;22.90;37.82;101238.34;5003923;28;4235;-75
2023/05/14 11:34:30;;;;;;;;;;;;;;;22.90;37.34;101223.91;5006015;28;4146;-76
2023/05/14 11:36:56;;;;;;;;;;;;;;;22.89;36.53;101222.44;5007869;28;4229;-77
2023/05/14 11:39:23;;;;;;;;;;;;;;;22.69;35.80;101218.69;5004902;28;5012;-76
2023/05/14 11:41:49;;;;;;;;;;;;;;;22.58;35.46;101220.41;5010070;28;4190;-77
2023/05/14 11:44:15;;;;;;;;;;;;;;;22.57;35.78;101213.88;5008497;28;4092;-76
2023/05/14 11:46:52;;;;;;;;;;;;;;;22.61;35.96;101213.31;5016535;28;4229;-76
2023/05/14 11:49:20;;;;;;;;;;;;;;;22.60;37.10;101208.94;5007839;28;3946;-76
2023/05/14 11:51:46;;;;;;;;;;;;;;;22.63;37.59;101204.00;5009471;28;4069;-80
2023/05/14 11:54:12;;;;;;;;;;;;;;;22.73;37.76;101210.22;5010659;28;5203;-78
2023/05/14 11:56:39;;;;;;;;;;;;;;;22.85;38.19;101195.53;5010411;28;4043;-76
2023/05/14 11:59:05;;;;;;;;;;;;;;;22.81;38.57;101204.75;5008452;28;4102;-75
2023/05/14 12:01:35;;;;;;;;;;;;;;;22.81;38.31;101201.88;5008664;28;4296;-73
2023/05/14 12:04:02;;;;;;;;;;;;;;;22.83;38.21;101195.44;5006097;28;4239;-76
2023/05/14 12:06:29;;;;;;;;;;;;;;;22.86;38.23;101191.25;5009962;28;3992;-74
2023/05/14 12:08:55;;;;;;;;;;;;;;;22.80;38.76;101194.63;5005271;28;4251;-80
2023/05/14 12:11:22;;;;;;;;;;;;;;;22.88;39.15;101194.94;5009334;28;4154;-76
2023/05/14 12:13:48;;;;;;;;;;;;;;;22.97;38.77;101191.00;5006213;28;4503;-78
2023/05/14 12:16:16;;;;;;;;;;;;;;;22.95;39.05;101179.38;5013857;28;4169;-76
2023/05/14 12:18:43;;;;;;;;;;;;;;;23.01;39.19;101187.56;5013848;28;4205;-77
2023/05/14 12:21:10;;;;;;;;;;;;;;;22.93;39.67;101182.19;5008613;28;4486;-77
2023/05/14 12:23:37;;;;;;;;;;;;;;;23.02;39.65;101179.63;5010686;28;4074;-78
2023/05/14 12:26:04;;;;;;;;;;;;;;;23.06;39.70;101179.81;5013008;28;4216;-75
2023/05/14 12:28:32;;;;;;;;;;;;;;;23.00;39.37;101183.94;5006460;28;4153;-71
2023/05/14 12:31:02;;;;;;;;;;;;;;;23.02;39.65;101183.28;5008136;28;4485;-73
2023/05/14 12:33:28;;;;;;;;;;;;;;;22.87;40.41;101181.19;5007623;28;4545;-76
2023/05/14 12:36:01;;;;;;;;;;;;;;;22.84;40.77;101176.72;5003110;28;4048;-77
2023/05/14 12:38:47;;;;;;;;;;;;;;;22.90;40.44;101179.84;5005158;28;4112;-79
2023/05/14 12:41:14;;;;;;;;;;;;;;;22.87;40.19;101181.19;5005612;28;4022;-81
2023/05/14 12:43:41;;;;;;;;;;;;;;;22.64;40.25;101174.47;5003206;28;4499;-76
2023/05/14 12:46:08;;;;;;;;;;;;;;;22.41;38.20;101177.81;5005604;28;4087;-76
2023/05/14 12:48:34;;;;;;;;;;;;;;;22.45;37.35;101163.56;5005619;28;4303;-75